createdAt,value
2018-12-17T00:04:59.719Z,93.09
2018-12-17T00:10:04.875Z,92.86
2018-12-17T00:15:08.528Z,92.93
2018-12-17T00:20:11.915Z,92.88
2018-12-17T00:25:15.513Z,92.56
2018-12-17T00:30:18.790Z,92.77
2018-12-17T00:35:22.110Z,93.11
2018-12-17T00:40:25.448Z,93.25
2018-12-17T00:45:28.671Z,93.22
2018-12-17T00:50:31.888Z,93.44
2018-12-17T00:55:35.156Z,93.21
2018-12-17T01:00:38.392Z,93.54
2018-12-17T01:05:41.550Z,93.12
2018-12-17T01:10:44.834Z,93.07
2018-12-17T01:15:48.064Z,93.22
2018-12-17T01:20:51.845Z,93.16
2018-12-17T01:25:55.157Z,93.37
2018-12-17T01:30:58.376Z,93.44
2018-12-17T01:36:01.785Z,93.69
2018-12-17T01:41:05.588Z,93.35
2018-12-17T01:46:08.837Z,93.70
2018-12-17T01:51:12.022Z,94.11
2018-12-17T01:56:15.399Z,94.56
2018-12-17T02:01:18.627Z,95.77
2018-12-17T02:06:21.858Z,95.92
2018-12-17T02:11:25.154Z,97.23
2018-12-17T02:16:28.818Z,97.00
2018-12-17T02:21:32.060Z,96.56
2018-12-17T02:26:35.583Z,96.83
2018-12-17T02:31:38.771Z,96.63
2018-12-17T02:36:42.386Z,96.17
2018-12-17T02:41:45.683Z,94.83
2018-12-17T02:46:49.000Z,95.24
2018-12-17T02:51:52.261Z,96.01
2018-12-17T02:56:57.862Z,96.13
2018-12-17T03:02:01.579Z,96.22
2018-12-17T03:07:04.865Z,95.77
2018-12-17T03:12:08.170Z,96.02
2018-12-17T03:17:11.597Z,95.71
2018-12-17T03:22:14.893Z,95.85
2018-12-17T03:27:18.176Z,95.54
2018-12-17T03:32:21.806Z,95.65
2018-12-17T03:37:25.350Z,95.21
2018-12-17T03:42:28.607Z,95.22
2018-12-17T03:47:31.931Z,94.49
2018-12-17T03:52:35.174Z,94.04
2018-12-17T03:57:38.538Z,94.19
2018-12-17T04:02:41.795Z,94.33
2018-12-17T04:07:45.658Z,94.39
2018-12-17T04:12:49.020Z,95.19
2018-12-17T04:17:52.290Z,95.56
2018-12-17T04:22:55.471Z,95.50
2018-12-17T04:27:58.648Z,94.33
2018-12-17T04:33:01.908Z,93.96
2018-12-17T04:38:05.111Z,93.78
2018-12-17T04:43:08.416Z,93.98
2018-12-17T04:48:11.705Z,94.44
2018-12-17T04:53:15.238Z,93.53
2018-12-17T04:58:19.599Z,93.45
2018-12-17T05:03:22.877Z,93.10
2018-12-17T05:08:26.102Z,93.64
2018-12-17T05:13:29.472Z,93.36
2018-12-17T05:18:33.003Z,93.40
2018-12-17T05:23:36.447Z,93.91
2018-12-17T05:28:39.732Z,94.22
2018-12-17T05:33:43.062Z,94.87
2018-12-17T05:38:46.316Z,95.32
2018-12-17T05:43:49.494Z,94.92
2018-12-17T05:48:52.750Z,95.08
2018-12-17T05:53:57.148Z,95.14
2018-12-17T05:59:00.427Z,94.92
2018-12-17T06:04:04.042Z,94.92
2018-12-17T06:09:07.668Z,95.23
2018-12-17T06:14:10.933Z,95.81
2018-12-17T06:19:15.575Z,95.68
2018-12-17T06:24:18.892Z,96.25
2018-12-17T06:29:22.381Z,96.22
2018-12-17T06:34:26.453Z,96.62
2018-12-17T06:39:32.524Z,96.46
2018-12-17T06:44:36.375Z,96.36
2018-12-17T06:49:39.891Z,96.32
2018-12-17T06:54:43.510Z,96.20
2018-12-17T06:59:46.763Z,96.30
2018-12-17T07:04:50.395Z,96.86
2018-12-17T07:09:53.755Z,96.56
2018-12-17T07:14:58.037Z,96.47
2018-12-17T07:20:01.408Z,96.33
2018-12-17T07:25:05.738Z,96.40
2018-12-17T07:30:09.038Z,95.77
2018-12-17T07:35:12.375Z,95.69
2018-12-17T07:40:15.513Z,95.46
2018-12-17T07:45:18.773Z,95.25
2018-12-17T07:50:22.179Z,95.18
2018-12-17T07:55:25.400Z,94.96
2018-12-17T08:00:28.634Z,94.65
2018-12-17T08:05:32.409Z,94.11
2018-12-17T08:10:35.631Z,92.97
2018-12-17T08:15:39.606Z,92.06
2018-12-17T08:20:42.905Z,92.49
2018-12-17T08:25:46.217Z,91.10
2018-12-17T08:30:49.405Z,90.73
2018-12-17T08:35:52.569Z,90.09
2018-12-17T08:40:56.228Z,89.42
2018-12-17T08:45:59.435Z,89.58
2018-12-17T08:51:02.696Z,88.22
2018-12-17T08:56:06.115Z,87.89
2018-12-17T09:01:09.251Z,87.54
2018-12-17T09:06:12.440Z,87.75
2018-12-17T09:11:15.592Z,88.66
2018-12-17T09:16:18.891Z,88.04
2018-12-17T09:21:22.107Z,87.77
2018-12-17T09:26:25.256Z,87.15
2018-12-17T09:31:28.487Z,85.86
2018-12-17T09:36:31.717Z,87.43
2018-12-17T09:41:35.047Z,87.83
2018-12-17T09:46:38.474Z,89.16
2018-12-17T09:51:41.660Z,90.16
2018-12-17T09:56:44.876Z,89.32
2018-12-17T10:01:48.108Z,89.33
2018-12-17T10:06:52.014Z,88.97
2018-12-17T10:11:55.833Z,89.82
2018-12-17T10:16:58.985Z,91.75
2018-12-17T10:22:02.102Z,90.01
2018-12-17T10:27:05.295Z,91.75
2018-12-17T10:32:08.561Z,92.25
2018-12-17T10:37:11.773Z,91.83
2018-12-17T10:42:15.199Z,90.31
2018-12-17T10:47:18.360Z,90.68
2018-12-17T10:52:22.555Z,89.96
2018-12-17T10:57:25.748Z,88.87
2018-12-17T11:02:28.999Z,88.45
2018-12-17T11:07:32.231Z,88.25
2018-12-17T11:12:35.614Z,87.79
2018-12-17T11:17:39.000Z,87.12
2018-12-17T11:22:42.461Z,86.43
2018-12-17T11:27:45.919Z,88.49
2018-12-17T11:32:49.188Z,86.73
2018-12-17T11:37:52.457Z,88.08
2018-12-17T11:42:55.737Z,88.40
2018-12-17T11:47:58.867Z,86.98
2018-12-17T11:53:02.136Z,86.23
2018-12-17T11:58:11.673Z,86.29
2018-12-17T12:03:16.161Z,89.58
2018-12-17T12:08:19.500Z,89.43
2018-12-17T12:13:23.004Z,89.05
2018-12-17T12:18:26.284Z,87.34
2018-12-17T12:23:29.805Z,87.96
2018-12-17T12:28:33.005Z,89.83
2018-12-17T12:33:36.233Z,90.71
2018-12-17T12:38:39.517Z,89.82
2018-12-17T12:43:42.876Z,89.42
2018-12-17T12:48:46.069Z,89.86
2018-12-17T12:53:49.275Z,88.54
2018-12-17T12:58:52.569Z,89.29
2018-12-17T13:03:55.968Z,90.15
2018-12-17T13:08:59.284Z,90.08
2018-12-17T13:14:06.623Z,89.52
2018-12-17T13:19:09.823Z,88.31
2018-12-17T13:24:13.044Z,87.95
2018-12-17T13:29:16.541Z,88.69
2018-12-17T13:34:19.721Z,89.86
2018-12-17T13:39:23.253Z,90.90
2018-12-17T13:44:26.425Z,89.55
2018-12-17T13:49:29.667Z,90.23
2018-12-17T13:54:33.011Z,89.29
2018-12-17T13:59:36.235Z,89.95
2018-12-17T14:04:39.430Z,91.03
2018-12-17T14:09:42.953Z,91.70
2018-12-17T14:14:46.239Z,92.23
2018-12-17T14:19:49.511Z,92.98
2018-12-17T14:24:52.699Z,93.02
2018-12-17T14:29:56.307Z,93.60
2018-12-17T14:34:59.679Z,93.80
2018-12-17T14:40:06.368Z,94.33
2018-12-17T14:45:09.863Z,94.66
2018-12-17T14:50:13.192Z,94.88
2018-12-17T14:55:16.502Z,95.30
2018-12-17T15:00:19.849Z,95.74
2018-12-17T15:05:23.250Z,96.64
2018-12-17T15:10:26.612Z,96.08
2018-12-17T15:15:29.786Z,96.23
2018-12-17T15:20:33.017Z,96.40
2018-12-17T15:25:36.260Z,96.07
2018-12-17T15:30:39.713Z,96.57
2018-12-17T15:35:43.349Z,96.20
2018-12-17T15:40:46.597Z,96.60
2018-12-17T15:45:50.233Z,96.55
2018-12-17T15:50:53.444Z,96.44
2018-12-17T15:55:56.652Z,96.28
2018-12-17T16:00:59.885Z,96.45
2018-12-17T16:06:08.222Z,96.50
2018-12-17T16:11:11.509Z,95.91
2018-12-17T16:16:14.726Z,95.10
2018-12-17T16:21:18.049Z,96.23
2018-12-17T16:26:21.843Z,96.71
2018-12-17T16:31:25.372Z,96.90
2018-12-17T16:36:28.723Z,96.77
2018-12-17T16:41:31.976Z,96.75
2018-12-17T16:46:35.859Z,97.43
2018-12-17T16:51:39.237Z,97.58
2018-12-17T16:56:42.448Z,97.48
2018-12-17T17:01:45.745Z,97.24
2018-12-17T17:06:49.277Z,96.91
2018-12-17T17:11:52.444Z,96.70
2018-12-17T17:16:56.245Z,96.16
2018-12-17T17:21:59.391Z,96.54
2018-12-17T17:27:02.666Z,96.72
2018-12-17T17:32:11.578Z,96.89
2018-12-17T17:37:11.705Z,96.62
2018-12-17T17:42:14.961Z,97.09
2018-12-17T17:47:18.179Z,96.86
2018-12-17T17:52:21.356Z,97.08
2018-12-17T17:57:24.640Z,96.63
2018-12-17T18:02:28.087Z,97.09
2018-12-17T18:07:31.353Z,96.82
2018-12-17T18:12:37.911Z,96.87
2018-12-17T18:17:41.140Z,97.49
2018-12-17T18:22:44.346Z,97.54
2018-12-17T18:27:48.582Z,97.99
2018-12-17T18:32:51.938Z,97.77
2018-12-17T18:37:55.136Z,98.17
2018-12-17T18:43:03.960Z,98.39
2018-12-17T18:48:08.182Z,98.44
2018-12-17T18:53:11.395Z,99.44
2018-12-17T18:58:14.663Z,98.76
2018-12-17T19:03:18.028Z,97.49
2018-12-17T19:08:21.292Z,96.37
2018-12-17T19:13:24.539Z,96.32
2018-12-17T19:18:29.072Z,95.39
2018-12-17T19:23:32.561Z,95.35
2018-12-17T19:28:35.844Z,95.77
2018-12-17T19:33:39.482Z,96.62
2018-12-17T19:38:42.777Z,95.44
2018-12-17T19:43:46.120Z,94.82
2018-12-17T19:48:49.999Z,94.16
2018-12-17T19:53:53.490Z,95.99
2018-12-17T19:58:56.974Z,94.02
2018-12-17T20:04:00.293Z,94.50
2018-12-17T20:09:05.134Z,96.02
2018-12-17T20:14:08.445Z,96.68
2018-12-17T20:19:11.670Z,97.15
2018-12-17T20:24:17.326Z,98.08
2018-12-17T20:29:26.000Z,97.82
2018-12-17T20:34:32.195Z,97.80
2018-12-17T20:39:35.423Z,97.94
2018-12-17T20:44:38.510Z,97.38
2018-12-17T20:49:41.765Z,97.45
2018-12-17T20:54:44.886Z,96.93
2018-12-17T20:59:48.181Z,95.97
2018-12-17T21:04:51.342Z,96.52
2018-12-17T21:09:55.670Z,96.42
2018-12-17T21:15:02.258Z,97.03
2018-12-17T21:20:08.105Z,97.71
2018-12-17T21:25:13.881Z,97.53
2018-12-17T21:30:17.286Z,97.43
2018-12-17T21:35:20.633Z,97.94
2018-12-17T21:40:23.846Z,97.63
2018-12-17T21:45:27.142Z,97.74
2018-12-17T21:50:30.408Z,97.72
2018-12-17T21:55:34.832Z,97.62
2018-12-17T22:00:40.226Z,97.39
2018-12-17T22:05:43.848Z,97.92
2018-12-17T22:10:47.113Z,97.98
2018-12-17T22:15:50.280Z,98.01
2018-12-17T22:20:53.577Z,98.11
2018-12-17T22:25:56.753Z,98.25
2018-12-17T22:31:00.024Z,98.10
2018-12-17T22:36:03.224Z,97.41
2018-12-17T22:41:06.386Z,97.78
2018-12-17T22:46:09.653Z,98.29
2018-12-17T22:51:12.864Z,98.99
2018-12-17T22:56:15.987Z,98.51
2018-12-17T23:01:19.159Z,98.34
2018-12-17T23:06:22.319Z,98.35
2018-12-17T23:11:36.798Z,98.21
2018-12-17T23:16:51.234Z,98.42
2018-12-17T23:21:55.129Z,98.05
2018-12-17T23:26:58.515Z,98.93
2018-12-17T23:32:01.781Z,100.00
2018-12-17T23:37:05.004Z,99.81
2018-12-17T23:42:08.170Z,100.00
2018-12-17T23:47:11.359Z,100.00
2018-12-17T23:52:15.555Z,100.00
2018-12-17T23:57:18.717Z,100.00
